Hilldale, Pennsylvania
Current Conditions -  °F | °C
As of 2:54 PM on Monday 26 Jan 2015 (Local Time) from KAVP Reporting Station
Light Snow Light Snow  
Wind Chill: 10°   Ceiling: 2800
Heat Index: 22°   Visibility: 1.7mi
Dew Point: 13°   Wind: 13mph
Humidity: 68%   Direction: 60°ENE
Pressure: 29.81"   Gusts: 20mph
Location:  41.2711°N, 75.8417°W
Report Text: KAVP 261954Z 06011G17KT 1 3/4SM -SN BKN028 OVC040 M06/M11 A2981 RMK AO2 SLP107 P0001 T10561106
Loading
Personal Weather Stations






























Interactive Weather Map New forecast layout! Learn more

10-Day Weather Forecast

Advertisements
Track Severe Weather on mobile